createdAt,value
2018-01-26T00:00:10.598Z,7.42
2018-01-26T00:01:10.559Z,7.39
2018-01-26T00:02:10.552Z,7.35
2018-01-26T00:03:10.544Z,7.32
2018-01-26T00:04:10.547Z,7.35
2018-01-26T00:05:10.536Z,7.40
2018-01-26T00:06:10.526Z,7.37
2018-01-26T00:07:10.522Z,7.43
2018-01-26T00:08:10.808Z,7.37
2018-01-26T00:09:10.512Z,7.35
2018-01-26T00:10:10.509Z,7.39
2018-01-26T00:11:10.504Z,7.34
2018-01-26T00:12:10.491Z,7.43
2018-01-26T00:13:10.491Z,7.42
2018-01-26T00:14:10.488Z,7.32
2018-01-26T00:15:10.479Z,7.40
2018-01-26T00:16:10.497Z,7.40
2018-01-26T00:17:10.468Z,7.39
2018-01-26T00:18:10.459Z,7.42
2018-01-26T00:19:10.455Z,7.37
2018-01-26T00:20:10.456Z,7.39
2018-01-26T00:21:10.449Z,7.42
2018-01-26T00:22:10.440Z,7.39
2018-01-26T00:23:10.435Z,7.39
2018-01-26T00:24:10.867Z,7.35
2018-01-26T00:25:10.421Z,7.39
2018-01-26T00:26:10.419Z,7.35
2018-01-26T00:27:10.414Z,7.32
2018-01-26T00:28:10.403Z,7.37
2018-01-26T00:29:10.396Z,7.34
2018-01-26T00:30:10.404Z,7.35
2018-01-26T00:31:10.389Z,7.39
2018-01-26T00:32:10.397Z,7.45
2018-01-26T00:33:10.375Z,7.39
2018-01-26T00:34:10.364Z,7.31
2018-01-26T00:35:10.358Z,7.31
2018-01-26T00:36:10.363Z,7.30
2018-01-26T00:37:10.351Z,7.37
2018-01-26T00:38:10.343Z,7.40
2018-01-26T00:39:10.342Z,7.35
2018-01-26T00:40:10.807Z,7.35
2018-01-26T00:41:10.331Z,7.35
2018-01-26T00:42:10.329Z,7.39
2018-01-26T00:43:10.318Z,7.25
2018-01-26T00:44:10.312Z,7.34
2018-01-26T00:45:10.302Z,7.31
2018-01-26T00:46:10.303Z,7.27
2018-01-26T00:47:10.295Z,7.28
2018-01-26T00:48:10.301Z,7.34
2018-01-26T00:49:10.283Z,7.28
2018-01-26T00:50:10.271Z,7.28
2018-01-26T00:51:10.269Z,7.32
2018-01-26T00:52:10.266Z,7.37
2018-01-26T00:53:10.254Z,7.32
2018-01-26T00:54:10.254Z,7.35
2018-01-26T00:55:10.249Z,7.32
2018-01-26T00:56:10.259Z,7.32
2018-01-26T00:57:10.246Z,7.25
2018-01-26T00:58:10.228Z,7.32
2018-01-26T00:59:10.215Z,7.34
2018-01-26T01:00:10.223Z,7.32
2018-01-26T01:01:10.212Z,7.24
2018-01-26T01:02:10.199Z,7.32
2018-01-26T01:03:10.195Z,7.25
2018-01-26T01:04:10.189Z,7.31
2018-01-26T01:05:10.182Z,7.32
2018-01-26T01:06:10.187Z,7.32
2018-01-26T01:07:10.191Z,7.25
2018-01-26T01:08:10.162Z,7.27
2018-01-26T01:09:10.257Z,7.30
2018-01-26T01:10:10.160Z,7.28
2018-01-26T01:11:10.155Z,7.24
2018-01-26T01:12:10.172Z,7.32
2018-01-26T01:13:10.142Z,7.31
2018-01-26T01:14:10.130Z,7.28
2018-01-26T01:15:10.168Z,7.28
2018-01-26T01:16:10.123Z,7.32
2018-01-26T01:17:10.114Z,7.25
2018-01-26T01:18:10.108Z,7.27
2018-01-26T01:19:10.098Z,7.34
2018-01-26T01:20:10.196Z,7.27
2018-01-26T01:21:10.087Z,7.27
2018-01-26T01:22:10.093Z,7.35
2018-01-26T01:23:10.081Z,7.27
2018-01-26T01:24:10.074Z,7.32
2018-01-26T01:25:10.066Z,7.28
2018-01-26T01:26:10.063Z,7.25
2018-01-26T01:27:10.056Z,7.24
2018-01-26T01:28:10.459Z,7.28
2018-01-26T01:29:10.043Z,7.32
2018-01-26T01:30:10.039Z,7.32
2018-01-26T01:31:10.029Z,7.31
2018-01-26T01:32:10.029Z,7.30
2018-01-26T01:33:10.027Z,7.30
2018-01-26T01:34:10.014Z,7.34
2018-01-26T01:35:10.015Z,7.35
2018-01-26T01:36:10.194Z,7.34
2018-01-26T01:37:09.992Z,7.37
2018-01-26T01:38:09.991Z,7.35
2018-01-26T01:39:09.987Z,7.39
2018-01-26T01:40:09.983Z,7.31
2018-01-26T01:41:09.973Z,7.39
2018-01-26T01:42:09.969Z,7.42
2018-01-26T01:43:09.964Z,7.34
2018-01-26T01:44:10.461Z,7.37
2018-01-26T01:45:09.957Z,7.32
2018-01-26T01:46:09.945Z,7.39
2018-01-26T01:47:09.938Z,7.37
2018-01-26T01:48:09.938Z,7.27
2018-01-26T01:49:09.930Z,7.31
2018-01-26T01:50:09.922Z,7.28
2018-01-26T01:51:09.918Z,7.34
2018-01-26T01:52:10.203Z,7.24
2018-01-26T01:53:09.908Z,7.32
2018-01-26T01:54:09.905Z,7.32
2018-01-26T01:55:09.901Z,7.32
2018-01-26T01:56:09.886Z,7.39
2018-01-26T01:57:09.879Z,7.40
2018-01-26T01:58:09.884Z,7.34
2018-01-26T01:59:09.873Z,7.35
2018-01-26T02:00:10.131Z,7.32
2018-01-26T02:01:09.868Z,7.39
2018-01-26T02:02:09.859Z,7.43
2018-01-26T02:03:09.854Z,7.34
2018-01-26T02:04:09.851Z,7.35
2018-01-26T02:05:09.839Z,7.30
2018-01-26T02:06:09.831Z,7.28
2018-01-26T02:07:09.824Z,7.31
2018-01-26T02:08:09.821Z,7.32
2018-01-26T02:09:09.819Z,7.37
2018-01-26T02:10:09.815Z,7.39
2018-01-26T02:11:09.809Z,7.37
2018-01-26T02:12:09.850Z,7.34
2018-01-26T02:13:09.795Z,7.25
2018-01-26T02:14:09.794Z,7.25
2018-01-26T02:15:09.788Z,7.25
2018-01-26T02:16:09.779Z,7.25
2018-01-26T02:17:09.777Z,7.25
2018-01-26T02:18:09.770Z,7.32
2018-01-26T02:19:09.759Z,7.34
2018-01-26T02:20:09.759Z,7.34
2018-01-26T02:21:09.754Z,7.30
2018-01-26T02:22:09.743Z,7.24
2018-01-26T02:23:09.742Z,7.28
2018-01-26T02:24:09.737Z,7.16
2018-01-26T02:25:09.725Z,7.17
2018-01-26T02:26:09.726Z,7.25
2018-01-26T02:27:09.719Z,7.24
2018-01-26T02:28:09.709Z,7.07
2018-01-26T02:29:09.705Z,7.12
2018-01-26T02:30:09.702Z,7.09
2018-01-26T02:31:09.697Z,7.12
2018-01-26T02:32:09.694Z,7.09
2018-01-26T02:33:09.690Z,7.13
2018-01-26T02:34:09.679Z,7.10
2018-01-26T02:35:09.688Z,7.12
2018-01-26T02:36:09.771Z,7.07
2018-01-26T02:37:09.664Z,7.16
2018-01-26T02:38:09.654Z,7.09
2018-01-26T02:39:09.649Z,7.20
2018-01-26T02:40:09.648Z,7.10
2018-01-26T02:41:09.638Z,7.13
2018-01-26T02:42:09.644Z,7.05
2018-01-26T02:43:09.633Z,7.13
2018-01-26T02:44:09.626Z,7.02
2018-01-26T02:45:09.622Z,7.09
2018-01-26T02:46:09.614Z,7.05
2018-01-26T02:47:09.611Z,7.16
2018-01-26T02:48:09.602Z,7.10
2018-01-26T02:49:09.601Z,7.12
2018-01-26T02:50:09.589Z,7.12
2018-01-26T02:51:09.579Z,7.09
2018-01-26T02:52:09.585Z,6.99
2018-01-26T02:53:09.576Z,6.99
2018-01-26T02:54:09.564Z,7.09
2018-01-26T02:55:09.560Z,7.13
2018-01-26T02:56:09.552Z,7.23
2018-01-26T02:57:09.551Z,7.23
2018-01-26T02:58:09.548Z,7.32
2018-01-26T02:59:09.540Z,7.32
2018-01-26T03:00:09.533Z,7.30
2018-01-26T03:01:09.533Z,7.32
2018-01-26T03:02:09.519Z,7.25
2018-01-26T03:03:09.519Z,7.32
2018-01-26T03:04:09.514Z,7.34
2018-01-26T03:05:09.512Z,7.30
2018-01-26T03:06:09.502Z,7.34
2018-01-26T03:07:09.498Z,7.27
2018-01-26T03:08:09.486Z,7.28
2018-01-26T03:09:09.486Z,7.39
2018-01-26T03:10:09.479Z,7.42
2018-01-26T03:11:09.475Z,7.39
2018-01-26T03:12:09.472Z,7.39
2018-01-26T03:13:09.468Z,7.52
2018-01-26T03:14:09.460Z,7.49
2018-01-26T03:15:09.452Z,7.55
2018-01-26T03:16:09.455Z,7.58
2018-01-26T03:17:09.445Z,7.60
2018-01-26T03:18:09.438Z,7.67
2018-01-26T03:19:09.434Z,7.53
2018-01-26T03:20:09.428Z,7.46
2018-01-26T03:21:09.422Z,7.42
2018-01-26T03:22:09.420Z,7.40
2018-01-26T03:23:09.421Z,7.39
2018-01-26T03:24:09.411Z,7.37
2018-01-26T03:25:09.402Z,7.39
2018-01-26T03:26:09.401Z,7.37
2018-01-26T03:27:09.404Z,7.30
2018-01-26T03:28:09.502Z,7.34
2018-01-26T03:29:09.404Z,7.40
2018-01-26T03:30:09.377Z,7.43
2018-01-26T03:31:09.377Z,7.46
2018-01-26T03:32:09.377Z,7.48
2018-01-26T03:33:09.368Z,7.42
2018-01-26T03:34:09.355Z,7.48
2018-01-26T03:35:09.362Z,7.48
2018-01-26T03:36:09.350Z,7.50
2018-01-26T03:37:09.353Z,7.49
2018-01-26T03:38:09.351Z,7.63
2018-01-26T03:39:09.354Z,7.63
2018-01-26T03:40:09.333Z,7.61
2018-01-26T03:41:09.321Z,7.60
2018-01-26T03:42:09.327Z,7.67
2018-01-26T03:43:09.321Z,7.67
2018-01-26T03:44:09.314Z,7.67
2018-01-26T03:45:09.313Z,7.63
2018-01-26T03:46:09.300Z,7.68
2018-01-26T03:47:09.295Z,7.67
2018-01-26T03:48:09.298Z,7.58
2018-01-26T03:49:09.333Z,7.69
2018-01-26T03:50:09.282Z,7.74
2018-01-26T03:51:09.284Z,7.69
2018-01-26T03:52:09.270Z,7.71
2018-01-26T03:53:09.266Z,7.71
2018-01-26T03:54:09.270Z,7.69
2018-01-26T03:55:09.262Z,7.67
2018-01-26T03:56:09.254Z,7.61
2018-01-26T03:57:09.250Z,7.68
2018-01-26T03:58:09.246Z,7.72
2018-01-26T03:59:09.245Z,7.67
2018-01-26T04:00:09.239Z,7.71
2018-01-26T04:01:09.233Z,7.68
2018-01-26T04:02:09.222Z,7.67
2018-01-26T04:03:09.216Z,7.83
2018-01-26T04:04:09.216Z,7.75
2018-01-26T04:05:09.211Z,7.79
2018-01-26T04:06:09.203Z,7.67
2018-01-26T04:07:09.201Z,7.69
2018-01-26T04:08:09.192Z,7.75
2018-01-26T04:09:09.191Z,7.77
2018-01-26T04:10:09.190Z,7.61
2018-01-26T04:11:09.181Z,7.60
2018-01-26T04:12:09.172Z,7.60
2018-01-26T04:13:09.167Z,7.67
2018-01-26T04:14:09.170Z,7.69
2018-01-26T04:15:09.163Z,7.60
2018-01-26T04:16:09.155Z,7.71
2018-01-26T04:17:09.148Z,7.63
2018-01-26T04:18:09.140Z,7.63
2018-01-26T04:19:09.136Z,7.67
2018-01-26T04:20:09.140Z,7.60
2018-01-26T04:21:09.131Z,7.60
2018-01-26T04:22:09.120Z,7.57
2018-01-26T04:23:09.116Z,7.60
2018-01-26T04:24:09.114Z,7.57
2018-01-26T04:25:09.107Z,7.58
2018-01-26T04:26:09.109Z,7.61
2018-01-26T04:27:09.101Z,7.61
2018-01-26T04:28:09.091Z,7.55
2018-01-26T04:29:09.084Z,7.49
2018-01-26T04:30:09.110Z,7.57
2018-01-26T04:31:09.084Z,7.50
2018-01-26T04:32:09.078Z,7.55
2018-01-26T04:33:09.071Z,7.48
2018-01-26T04:34:09.061Z,7.50
2018-01-26T04:35:09.055Z,7.55
2018-01-26T04:36:09.059Z,7.52
2018-01-26T04:37:09.050Z,7.55
2018-01-26T04:38:09.044Z,7.55
2018-01-26T04:39:09.039Z,7.57
2018-01-26T04:40:09.029Z,7.53
2018-01-26T04:41:09.022Z,7.53
2018-01-26T04:42:09.020Z,7.49
2018-01-26T04:43:09.016Z,7.49
2018-01-26T04:44:09.008Z,7.53
2018-01-26T04:45:09.005Z,7.52
2018-01-26T04:46:09.008Z,7.48
2018-01-26T04:47:08.997Z,7.49
2018-01-26T04:48:08.993Z,7.43
2018-01-26T04:49:08.982Z,7.42
2018-01-26T04:50:08.973Z,7.39
2018-01-26T04:51:08.974Z,7.43
2018-01-26T04:52:08.972Z,7.42
2018-01-26T04:53:08.968Z,7.43
2018-01-26T04:54:08.952Z,7.42
2018-01-26T04:55:09.253Z,7.32
2018-01-26T04:56:08.944Z,7.43
2018-01-26T04:57:08.938Z,7.42
2018-01-26T04:58:08.939Z,7.45
2018-01-26T04:59:08.931Z,7.35
2018-01-26T05:00:08.930Z,7.34
2018-01-26T05:01:08.912Z,7.45
2018-01-26T05:02:08.915Z,7.43
2018-01-26T05:03:08.916Z,7.43
2018-01-26T05:04:08.909Z,7.35
2018-01-26T05:05:08.896Z,7.39
2018-01-26T05:06:08.891Z,7.37
2018-01-26T05:07:08.883Z,7.40
2018-01-26T05:08:08.873Z,7.35
2018-01-26T05:09:08.873Z,7.35
2018-01-26T05:10:08.865Z,7.32
2018-01-26T05:11:08.861Z,7.30
2018-01-26T05:12:08.858Z,7.32
2018-01-26T05:13:08.953Z,7.31
2018-01-26T05:14:08.846Z,7.35
2018-01-26T05:15:08.837Z,7.34
2018-01-26T05:16:08.837Z,7.34
2018-01-26T05:17:08.830Z,7.39
2018-01-26T05:18:08.816Z,7.43
2018-01-26T05:19:08.811Z,7.39
2018-01-26T05:20:08.810Z,7.46
2018-01-26T05:21:08.803Z,7.48
2018-01-26T05:22:08.803Z,7.45
2018-01-26T05:23:08.795Z,7.53
2018-01-26T05:24:08.790Z,7.53
2018-01-26T05:25:08.779Z,7.53
2018-01-26T05:26:08.788Z,7.53
2018-01-26T05:27:08.774Z,7.48
2018-01-26T05:28:08.765Z,7.46
2018-01-26T05:29:08.758Z,7.50
2018-01-26T05:30:08.749Z,7.52
2018-01-26T05:31:08.744Z,7.60
2018-01-26T05:32:08.745Z,7.58
2018-01-26T05:33:08.741Z,7.57
2018-01-26T05:34:08.731Z,7.53
2018-01-26T05:35:08.760Z,7.58
2018-01-26T05:36:08.718Z,7.57
2018-01-26T05:37:08.718Z,7.53
2018-01-26T05:38:08.712Z,7.49
2018-01-26T05:39:08.720Z,7.58
2018-01-26T05:40:08.704Z,7.52
2018-01-26T05:41:08.691Z,7.55
2018-01-26T05:42:08.690Z,7.60
2018-01-26T05:43:08.688Z,7.58
2018-01-26T05:44:08.685Z,7.58
2018-01-26T05:45:08.682Z,7.55
2018-01-26T05:46:08.669Z,7.57
2018-01-26T05:47:08.671Z,7.63
2018-01-26T05:48:08.661Z,7.61
2018-01-26T05:49:08.656Z,7.61
2018-01-26T05:50:08.652Z,7.63
2018-01-26T05:51:08.642Z,7.71
2018-01-26T05:52:08.641Z,7.63
2018-01-26T05:53:08.640Z,7.67
2018-01-26T05:54:08.636Z,7.67
2018-01-26T05:55:08.630Z,7.68
2018-01-26T05:56:08.620Z,7.67
2018-01-26T05:57:08.616Z,7.60
2018-01-26T05:58:08.615Z,7.63
2018-01-26T05:59:08.612Z,7.67
2018-01-26T06:00:08.602Z,7.69
2018-01-26T06:01:08.600Z,7.69
2018-01-26T06:02:08.588Z,7.61
2018-01-26T06:03:08.583Z,7.67
2018-01-26T06:04:08.584Z,7.64
2018-01-26T06:05:08.582Z,7.67
2018-01-26T06:06:08.568Z,7.67
2018-01-26T06:07:08.667Z,7.61
2018-01-26T06:08:08.568Z,7.60
2018-01-26T06:09:08.569Z,7.61
2018-01-26T06:10:08.551Z,7.61
2018-01-26T06:11:08.545Z,7.63
2018-01-26T06:12:08.538Z,7.60
2018-01-26T06:13:08.532Z,7.61
2018-01-26T06:14:08.534Z,7.63
2018-01-26T06:15:08.526Z,7.67
2018-01-26T06:16:08.526Z,7.67
2018-01-26T06:17:08.522Z,7.60
2018-01-26T06:18:08.519Z,7.63
2018-01-26T06:19:08.517Z,7.67
2018-01-26T06:20:08.501Z,7.64
2018-01-26T06:21:08.495Z,7.61
2018-01-26T06:22:08.487Z,7.52
2018-01-26T06:23:08.486Z,7.53
2018-01-26T06:24:08.483Z,7.60
2018-01-26T06:25:08.469Z,7.60
2018-01-26T06:26:08.467Z,7.63
2018-01-26T06:27:08.462Z,7.58
2018-01-26T06:28:08.453Z,7.57
2018-01-26T06:29:08.451Z,7.53
2018-01-26T06:30:08.452Z,7.50
2018-01-26T06:31:08.445Z,7.53
2018-01-26T06:32:08.440Z,7.50
2018-01-26T06:33:08.433Z,7.55
2018-01-26T06:34:08.426Z,7.57
2018-01-26T06:35:08.422Z,7.55
2018-01-26T06:36:08.415Z,7.58
2018-01-26T06:37:08.409Z,7.57
2018-01-26T06:38:08.406Z,7.53
2018-01-26T06:39:08.397Z,7.57
2018-01-26T06:40:08.394Z,7.67
2018-01-26T06:41:08.386Z,7.64
2018-01-26T06:42:08.386Z,7.61
2018-01-26T06:43:08.380Z,7.60
2018-01-26T06:44:08.370Z,7.63
2018-01-26T06:45:08.367Z,7.60
2018-01-26T06:46:08.399Z,7.60
2018-01-26T06:47:08.363Z,7.61
2018-01-26T06:48:08.357Z,7.55
2018-01-26T06:49:08.346Z,7.58
2018-01-26T06:50:08.337Z,7.64
2018-01-26T06:51:08.332Z,7.64
2018-01-26T06:52:08.334Z,7.61
2018-01-26T06:53:08.331Z,7.67
2018-01-26T06:54:08.317Z,7.60
2018-01-26T06:55:08.312Z,7.60
2018-01-26T06:56:08.305Z,7.61
2018-01-26T06:57:08.305Z,7.61
2018-01-26T06:58:08.299Z,7.61
2018-01-26T06:59:08.294Z,7.69
2018-01-26T07:00:08.285Z,7.64
2018-01-26T07:01:08.284Z,7.74
2018-01-26T07:02:08.278Z,7.83
2018-01-26T07:03:08.273Z,7.77
2018-01-26T07:04:08.273Z,7.75
2018-01-26T07:05:08.265Z,7.71
2018-01-26T07:06:08.254Z,7.75
2018-01-26T07:07:08.250Z,7.69
2018-01-26T07:08:08.250Z,7.74
2018-01-26T07:09:08.241Z,7.72
2018-01-26T07:10:08.232Z,7.79
2018-01-26T07:11:08.232Z,7.72
2018-01-26T07:12:08.223Z,7.80
2018-01-26T07:13:08.218Z,7.68
2018-01-26T07:14:08.216Z,7.68
2018-01-26T07:15:08.213Z,7.61
2018-01-26T07:16:08.207Z,7.57
2018-01-26T07:17:08.202Z,7.43
2018-01-26T07:18:08.192Z,7.39
2018-01-26T07:19:08.339Z,7.39
2018-01-26T07:20:08.183Z,7.39
2018-01-26T07:21:08.172Z,7.40
2018-01-26T07:22:08.171Z,7.39
2018-01-26T07:23:08.172Z,7.34
2018-01-26T07:24:08.163Z,7.32
2018-01-26T07:25:08.154Z,7.43
2018-01-26T07:26:08.152Z,7.48
2018-01-26T07:27:08.146Z,7.45
2018-01-26T07:28:08.138Z,7.48
2018-01-26T07:29:08.132Z,7.48
2018-01-26T07:30:08.123Z,7.46
2018-01-26T07:31:08.117Z,7.37
2018-01-26T07:32:08.116Z,7.40
2018-01-26T07:33:08.112Z,7.34
2018-01-26T07:34:08.103Z,7.30
2018-01-26T07:35:08.100Z,7.27
2018-01-26T07:36:08.093Z,7.28
2018-01-26T07:37:08.084Z,7.35
2018-01-26T07:38:08.085Z,7.28
2018-01-26T07:39:08.076Z,7.27
2018-01-26T07:40:08.067Z,7.27
2018-01-26T07:41:08.057Z,7.23
2018-01-26T07:42:08.059Z,7.32
2018-01-26T07:43:08.050Z,7.32
2018-01-26T07:44:08.049Z,7.28
2018-01-26T07:45:08.040Z,7.34
2018-01-26T07:46:08.028Z,7.32
2018-01-26T07:47:08.022Z,7.40
2018-01-26T07:48:08.021Z,7.45
2018-01-26T07:49:08.014Z,7.39
2018-01-26T07:50:08.005Z,7.34
2018-01-26T07:51:07.999Z,7.39
2018-01-26T07:52:07.997Z,7.45
2018-01-26T07:53:07.985Z,7.40
2018-01-26T07:54:07.983Z,7.48
2018-01-26T07:55:07.980Z,7.42
2018-01-26T07:56:07.970Z,7.40
2018-01-26T07:57:07.964Z,7.35
2018-01-26T07:58:07.962Z,7.34
2018-01-26T07:59:07.956Z,7.35
2018-01-26T08:00:07.956Z,7.35
2018-01-26T08:01:07.946Z,7.31
2018-01-26T08:02:07.932Z,7.40
2018-01-26T08:03:07.930Z,7.43
2018-01-26T08:04:07.932Z,7.30
2018-01-26T08:05:07.918Z,7.35
2018-01-26T08:06:07.909Z,7.39
2018-01-26T08:07:07.902Z,7.39
2018-01-26T08:08:07.902Z,7.40
2018-01-26T08:09:07.897Z,7.46
2018-01-26T08:10:07.896Z,7.46
2018-01-26T08:11:07.886Z,7.45
2018-01-26T08:12:07.875Z,7.48
2018-01-26T08:13:07.874Z,7.45
2018-01-26T08:14:07.866Z,7.49
2018-01-26T08:15:07.866Z,7.53
2018-01-26T08:16:07.857Z,7.48
2018-01-26T08:17:07.851Z,7.48
2018-01-26T08:18:07.843Z,7.32
2018-01-26T08:19:07.841Z,7.31
2018-01-26T08:20:07.833Z,7.31
2018-01-26T08:21:07.826Z,7.32
2018-01-26T08:22:07.817Z,7.32
2018-01-26T08:23:07.811Z,7.25
2018-01-26T08:24:07.811Z,7.37
2018-01-26T08:25:07.805Z,7.30
2018-01-26T08:26:07.801Z,7.40
2018-01-26T08:27:07.794Z,7.42
2018-01-26T08:28:07.782Z,7.40
2018-01-26T08:29:07.781Z,7.46
2018-01-26T08:30:07.779Z,7.43
2018-01-26T08:31:07.769Z,7.52
2018-01-26T08:32:07.765Z,7.50
2018-01-26T08:33:07.758Z,7.52
2018-01-26T08:34:07.752Z,7.57
2018-01-26T08:35:07.747Z,7.50
2018-01-26T08:36:07.753Z,7.52
2018-01-26T08:37:07.738Z,7.42
2018-01-26T08:38:07.733Z,7.37
2018-01-26T08:39:07.734Z,7.35
2018-01-26T08:40:07.717Z,7.39
2018-01-26T08:41:07.705Z,7.35
2018-01-26T08:42:07.710Z,7.30
2018-01-26T08:43:07.702Z,7.35
2018-01-26T08:44:07.691Z,7.25
2018-01-26T08:45:07.690Z,7.39
2018-01-26T08:46:07.686Z,7.39
2018-01-26T08:47:07.687Z,7.40
2018-01-26T08:48:07.688Z,7.46
2018-01-26T08:49:07.670Z,7.49
2018-01-26T08:50:07.653Z,7.48
2018-01-26T08:51:07.649Z,7.53
2018-01-26T08:52:07.646Z,7.49
2018-01-26T08:53:07.645Z,7.61
2018-01-26T08:54:07.630Z,7.61
2018-01-26T08:55:07.625Z,7.55
2018-01-26T08:56:07.625Z,7.43
2018-01-26T08:57:07.616Z,7.60
2018-01-26T08:58:07.615Z,7.61
2018-01-26T08:59:07.614Z,7.57
2018-01-26T09:00:07.597Z,7.69
2018-01-26T09:01:07.590Z,7.69
2018-01-26T09:02:07.589Z,7.79
2018-01-26T09:03:07.590Z,7.68
2018-01-26T09:04:07.582Z,7.67
2018-01-26T09:05:07.579Z,7.82
2018-01-26T09:06:07.586Z,7.85
2018-01-26T09:07:07.563Z,7.80
2018-01-26T09:08:07.560Z,7.83
2018-01-26T09:09:07.555Z,7.85
2018-01-26T09:10:07.546Z,7.83
2018-01-26T09:11:07.540Z,7.82
2018-01-26T09:12:07.538Z,7.77
2018-01-26T09:13:07.528Z,7.75
2018-01-26T09:14:07.530Z,7.71
2018-01-26T09:15:07.525Z,7.89
2018-01-26T09:16:07.516Z,7.74
2018-01-26T09:17:07.513Z,7.79
2018-01-26T09:18:07.514Z,7.75
2018-01-26T09:19:07.506Z,7.79
2018-01-26T09:20:07.498Z,7.72
2018-01-26T09:21:07.492Z,7.74
2018-01-26T09:22:07.490Z,7.86
2018-01-26T09:23:07.480Z,7.89
2018-01-26T09:24:07.491Z,7.87
2018-01-26T09:25:07.470Z,7.93
2018-01-26T09:26:07.470Z,7.89
2018-01-26T09:27:07.470Z,7.95
2018-01-26T09:28:07.462Z,7.89
2018-01-26T09:29:07.458Z,7.83
2018-01-26T09:30:07.451Z,7.90
2018-01-26T09:31:07.543Z,7.85
2018-01-26T09:32:07.442Z,7.87
2018-01-26T09:33:07.439Z,7.90
2018-01-26T09:34:07.443Z,7.93
2018-01-26T09:35:07.426Z,7.89
2018-01-26T09:36:07.420Z,7.85
2018-01-26T09:37:07.414Z,7.93
2018-01-26T09:38:07.415Z,8.01
2018-01-26T09:39:07.409Z,8.00
2018-01-26T09:40:07.400Z,7.98
2018-01-26T09:41:07.395Z,7.95
2018-01-26T09:42:07.393Z,8.02
2018-01-26T09:43:07.390Z,8.04
2018-01-26T09:44:07.383Z,7.90
2018-01-26T09:45:07.376Z,8.00
2018-01-26T09:46:07.366Z,7.97
2018-01-26T09:47:07.363Z,8.11
2018-01-26T09:48:07.367Z,8.02
2018-01-26T09:49:07.359Z,8.05
2018-01-26T09:50:07.351Z,8.07
2018-01-26T09:51:07.349Z,8.11
2018-01-26T09:52:07.346Z,8.04
2018-01-26T09:53:07.335Z,8.07
2018-01-26T09:54:07.333Z,8.08
2018-01-26T09:55:07.332Z,8.11
2018-01-26T09:56:07.358Z,8.11
2018-01-26T09:57:07.311Z,8.12
2018-01-26T09:58:07.314Z,8.15
2018-01-26T09:59:07.306Z,8.33
2018-01-26T10:00:07.316Z,8.23
2018-01-26T10:01:07.300Z,8.30
2018-01-26T10:02:07.287Z,8.26
2018-01-26T10:03:07.283Z,8.16
2018-01-26T10:04:07.285Z,8.20
2018-01-26T10:05:07.281Z,8.19
2018-01-26T10:06:07.311Z,8.08
2018-01-26T10:07:07.262Z,8.10
2018-01-26T10:08:07.265Z,8.11
2018-01-26T10:09:07.254Z,8.02
2018-01-26T10:10:07.258Z,8.12
2018-01-26T10:11:07.251Z,8.20
2018-01-26T10:12:07.244Z,8.15
2018-01-26T10:13:07.234Z,8.12
2018-01-26T10:14:07.237Z,8.08
2018-01-26T10:15:07.229Z,8.15
2018-01-26T10:16:07.227Z,8.15
2018-01-26T10:17:07.223Z,8.08
2018-01-26T10:18:07.209Z,8.25
2018-01-26T10:19:07.211Z,8.18
2018-01-26T10:20:07.209Z,8.11
2018-01-26T10:21:07.202Z,8.22
2018-01-26T10:22:07.193Z,8.19
2018-01-26T10:23:07.189Z,8.22
2018-01-26T10:24:07.185Z,8.19
2018-01-26T10:25:07.184Z,8.11
2018-01-26T10:26:07.481Z,8.16
2018-01-26T10:27:07.177Z,8.11
2018-01-26T10:28:07.171Z,8.12
2018-01-26T10:29:07.159Z,8.10
2018-01-26T10:30:07.163Z,8.02
2018-01-26T10:31:07.154Z,8.10
2018-01-26T10:32:07.148Z,8.11
2018-01-26T10:33:07.147Z,8.12
2018-01-26T10:34:07.137Z,8.12
2018-01-26T10:35:07.136Z,8.15
2018-01-26T10:36:07.134Z,8.16
2018-01-26T10:37:07.124Z,8.20
2018-01-26T10:38:07.135Z,8.22
2018-01-26T10:39:07.112Z,8.26
2018-01-26T10:40:07.103Z,8.29
2018-01-26T10:41:07.099Z,8.26
2018-01-26T10:42:07.097Z,8.28
2018-01-26T10:43:07.098Z,8.28
2018-01-26T10:44:07.087Z,8.26
2018-01-26T10:45:07.086Z,8.16
2018-01-26T10:46:07.077Z,8.23
2018-01-26T10:47:07.073Z,8.23
2018-01-26T10:48:07.070Z,8.25
2018-01-26T10:49:07.065Z,8.28
2018-01-26T10:50:07.055Z,8.40
2018-01-26T10:51:07.051Z,8.38
2018-01-26T10:52:07.051Z,8.40
2018-01-26T10:53:07.047Z,8.41
2018-01-26T10:54:07.034Z,8.38
2018-01-26T10:55:07.038Z,8.34
2018-01-26T10:56:07.027Z,8.28
2018-01-26T10:57:07.021Z,8.25
2018-01-26T10:58:07.023Z,8.23
2018-01-26T10:59:07.014Z,8.30
2018-01-26T11:00:07.008Z,8.41
2018-01-26T11:01:06.999Z,8.40
2018-01-26T11:02:07.001Z,8.53
2018-01-26T11:03:06.996Z,8.65
2018-01-26T11:04:06.992Z,8.59
2018-01-26T11:05:06.981Z,8.55
2018-01-26T11:06:06.972Z,8.63
2018-01-26T11:07:06.970Z,8.65
2018-01-26T11:08:06.972Z,8.53
2018-01-26T11:09:06.963Z,8.70
2018-01-26T11:10:06.957Z,8.61
2018-01-26T11:11:06.951Z,8.65
2018-01-26T11:12:06.946Z,8.68
2018-01-26T11:13:06.943Z,8.68
2018-01-26T11:14:06.979Z,8.70
2018-01-26T11:15:06.935Z,8.71
2018-01-26T11:16:06.926Z,8.76
2018-01-26T11:17:06.931Z,8.74
2018-01-26T11:18:06.927Z,8.70
2018-01-26T11:19:06.930Z,8.71
2018-01-26T11:20:06.917Z,8.70
2018-01-26T11:21:06.917Z,8.74
2018-01-26T11:22:06.905Z,8.73
2018-01-26T11:23:06.905Z,8.73
2018-01-26T11:24:06.909Z,8.73
2018-01-26T11:25:06.912Z,8.77
2018-01-26T11:26:06.883Z,8.63
2018-01-26T11:27:06.887Z,8.63
2018-01-26T11:28:06.880Z,8.61
2018-01-26T11:29:06.871Z,8.65
2018-01-26T11:30:06.874Z,8.73
2018-01-26T11:31:06.872Z,8.76
2018-01-26T11:32:06.864Z,8.70
2018-01-26T11:33:06.861Z,8.66
2018-01-26T11:34:06.858Z,8.65
2018-01-26T11:35:06.862Z,8.63
2018-01-26T11:36:06.862Z,8.71
2018-01-26T11:37:06.837Z,8.61
2018-01-26T11:38:06.835Z,8.63
2018-01-26T11:39:06.829Z,8.58
2018-01-26T11:40:06.824Z,8.63
2018-01-26T11:41:06.822Z,8.61
2018-01-26T11:42:06.819Z,8.62
2018-01-26T11:43:06.813Z,8.61
2018-01-26T11:44:06.807Z,8.50
2018-01-26T11:45:06.801Z,8.47
2018-01-26T11:46:06.794Z,8.48
2018-01-26T11:47:06.789Z,8.45
2018-01-26T11:48:06.797Z,8.44
2018-01-26T11:49:06.782Z,8.45
2018-01-26T11:50:06.774Z,8.48
2018-01-26T11:51:06.769Z,8.52
2018-01-26T11:52:06.767Z,8.58
2018-01-26T11:53:06.760Z,8.66
2018-01-26T11:54:06.768Z,8.70
2018-01-26T11:55:07.059Z,8.61
2018-01-26T11:56:06.744Z,8.65
2018-01-26T11:57:06.739Z,8.70
2018-01-26T11:58:06.746Z,8.55
2018-01-26T11:59:06.736Z,8.45
2018-01-26T12:00:06.731Z,8.50
2018-01-26T12:01:06.731Z,8.50
2018-01-26T12:02:06.721Z,8.48
2018-01-26T12:03:06.716Z,8.50
2018-01-26T12:04:06.716Z,8.61
2018-01-26T12:05:06.707Z,8.74
2018-01-26T12:06:06.699Z,8.76
2018-01-26T12:07:06.695Z,8.79
2018-01-26T12:08:06.692Z,8.71
2018-01-26T12:09:06.689Z,8.73
2018-01-26T12:10:06.688Z,8.63
2018-01-26T12:11:06.684Z,8.52
2018-01-26T12:12:06.976Z,8.52
2018-01-26T12:13:06.668Z,8.47
2018-01-26T12:14:06.672Z,8.41
2018-01-26T12:15:06.666Z,8.38
2018-01-26T12:16:06.655Z,8.41
2018-01-26T12:17:06.653Z,8.34
2018-01-26T12:18:06.642Z,8.33
2018-01-26T12:19:06.646Z,8.36
2018-01-26T12:20:06.635Z,8.38
2018-01-26T12:21:06.630Z,8.44
2018-01-26T12:22:06.622Z,8.44
2018-01-26T12:23:06.620Z,8.45
2018-01-26T12:24:06.663Z,8.43
2018-01-26T12:25:06.610Z,8.36
2018-01-26T12:26:06.612Z,8.41
2018-01-26T12:27:06.605Z,8.40
2018-01-26T12:28:06.593Z,8.41
2018-01-26T12:29:06.587Z,8.40
2018-01-26T12:30:06.586Z,8.41
2018-01-26T12:31:06.588Z,8.37
2018-01-26T12:32:06.580Z,8.45
2018-01-26T12:33:06.577Z,8.43
2018-01-26T12:34:06.573Z,8.44
2018-01-26T12:35:06.561Z,8.44
2018-01-26T12:36:06.558Z,8.45
2018-01-26T12:37:06.552Z,8.43
2018-01-26T12:38:06.543Z,8.55
2018-01-26T12:39:06.540Z,8.55
2018-01-26T12:40:06.540Z,8.48
2018-01-26T12:41:06.531Z,8.53
2018-01-26T12:42:06.531Z,8.59
2018-01-26T12:43:06.529Z,8.56
2018-01-26T12:44:06.519Z,8.52
2018-01-26T12:45:06.517Z,8.53
2018-01-26T12:46:06.513Z,8.50
2018-01-26T12:47:06.512Z,8.53
2018-01-26T12:48:06.503Z,8.58
2018-01-26T12:49:06.502Z,8.58
2018-01-26T12:50:06.494Z,8.58
2018-01-26T12:51:06.486Z,8.65
2018-01-26T12:52:06.486Z,8.70
2018-01-26T12:53:06.480Z,8.71
2018-01-26T12:54:06.477Z,8.71
2018-01-26T12:55:06.469Z,8.71
2018-01-26T12:56:06.470Z,8.70
2018-01-26T12:57:06.463Z,8.71
2018-01-26T12:58:06.709Z,8.71
2018-01-26T12:59:06.459Z,8.83
2018-01-26T13:00:06.448Z,8.92
2018-01-26T13:01:06.446Z,8.87
2018-01-26T13:02:06.448Z,8.84
2018-01-26T13:03:06.439Z,8.79
2018-01-26T13:04:06.435Z,8.80
2018-01-26T13:05:06.435Z,8.83
2018-01-26T13:06:06.422Z,9.02
2018-01-26T13:07:06.418Z,8.92
2018-01-26T13:08:06.420Z,8.96
2018-01-26T13:09:06.417Z,9.11
2018-01-26T13:10:06.712Z,9.18
2018-01-26T13:11:06.402Z,9.23
2018-01-26T13:12:06.401Z,9.32
2018-01-26T13:13:06.397Z,9.23
2018-01-26T13:14:06.398Z,9.33
2018-01-26T13:15:06.399Z,9.36
2018-01-26T13:16:06.389Z,9.39
2018-01-26T13:17:06.378Z,9.35
2018-01-26T13:18:06.380Z,9.35